createdAt,value
2018-10-05T00:00:15.827Z,20.7
2018-10-05T00:01:05.622Z,20.7
2018-10-05T00:01:55.589Z,20.7
2018-10-05T00:02:46.669Z,20.7
2018-10-05T00:03:35.799Z,20.7
2018-10-05T00:04:26.422Z,20.7
2018-10-05T00:05:16.174Z,20.7
2018-10-05T00:06:05.714Z,20.7
2018-10-05T00:06:56.571Z,20.7
2018-10-05T00:25:29.902Z,20.7
2018-10-05T00:26:05.852Z,20.6
2018-10-05T00:26:55.585Z,20.7
2018-10-05T00:27:45.095Z,20.7
2018-10-05T00:28:35.489Z,20.7
2018-10-05T00:29:25.515Z,20.7
2018-10-05T00:30:15.836Z,20.7
2018-10-05T00:31:05.377Z,20.7
2018-10-05T00:31:55.702Z,20.7
2018-10-05T00:32:45.840Z,20.7
2018-10-05T00:33:36.122Z,20.6
2018-10-05T00:34:25.124Z,20.7
2018-10-05T00:35:15.402Z,20.7
2018-10-05T00:36:06.287Z,20.7
2018-10-05T00:36:55.759Z,20.7
2018-10-05T00:37:45.639Z,20.7
2018-10-05T00:38:35.987Z,20.7
2018-10-05T00:39:26.404Z,20.7
2018-10-05T00:40:16.395Z,20.7
2018-10-05T00:41:06.449Z,20.7
2018-10-05T00:41:56.556Z,20.7
2018-10-05T00:42:46.273Z,20.7
2018-10-05T00:43:35.761Z,20.7
2018-10-05T00:44:25.516Z,20.7
2018-10-05T00:45:17.474Z,20.7
2018-10-05T00:46:06.826Z,20.7
2018-10-05T00:46:56.590Z,20.7
2018-10-05T00:47:46.925Z,20.7
2018-10-05T00:48:36.116Z,20.6
2018-10-05T00:49:26.992Z,20.7
2018-10-05T00:50:15.956Z,20.6
2018-10-05T00:51:06.644Z,20.7
2018-10-05T00:51:56.110Z,20.7
2018-10-05T00:52:47.573Z,20.7
2018-10-05T00:53:38.919Z,20.7
2018-10-05T00:54:26.558Z,20.6
2018-10-05T00:55:16.408Z,20.6
2018-10-05T00:56:07.591Z,20.6
2018-10-05T00:56:57.365Z,20.7
2018-10-05T00:57:47.172Z,20.6
2018-10-05T00:58:37.476Z,20.6
2018-10-05T00:59:27.905Z,20.6
2018-10-05T01:00:17.392Z,20.6
2018-10-05T01:01:07.542Z,20.7
2018-10-05T01:01:58.663Z,20.7
2018-10-05T01:02:48.576Z,20.7
2018-10-05T01:03:38.577Z,20.6
2018-10-05T01:04:27.872Z,20.7
2018-10-05T01:05:33.042Z,20.7
2018-10-05T01:06:08.433Z,20.6
2018-10-05T01:06:57.687Z,20.6
2018-10-05T01:07:48.580Z,20.7
2018-10-05T01:08:38.322Z,20.6
2018-10-05T01:09:28.735Z,20.6
2018-10-05T01:10:17.975Z,20.7
2018-10-05T01:11:08.842Z,20.7
2018-10-05T01:11:58.634Z,20.6
2018-10-05T01:12:48.693Z,20.6
2018-10-05T01:13:39.267Z,20.7
2018-10-05T01:14:28.343Z,20.6
2018-10-05T01:15:18.032Z,20.6
2018-10-05T01:16:09.934Z,20.6
2018-10-05T01:17:13.941Z,20.6
2018-10-05T01:17:48.786Z,20.6
2018-10-05T01:18:39.397Z,20.7
2018-10-05T01:19:29.457Z,20.7
2018-10-05T01:20:18.962Z,20.7
2018-10-05T01:21:09.757Z,20.6
2018-10-05T01:21:59.979Z,20.6
2018-10-05T01:22:48.934Z,20.6
2018-10-05T01:23:40.286Z,20.6
2018-10-05T01:24:28.997Z,20.6
2018-10-05T01:25:20.109Z,20.7
2018-10-05T01:26:10.452Z,20.6
2018-10-05T01:26:59.739Z,20.6
2018-10-05T01:27:49.536Z,20.6
2018-10-05T01:28:40.858Z,20.7
2018-10-05T01:29:29.962Z,20.6
2018-10-05T01:30:19.424Z,20.6
2018-10-05T01:31:10.084Z,20.6
2018-10-05T01:31:59.914Z,20.6
2018-10-05T01:32:49.901Z,20.6
2018-10-05T01:33:40.511Z,20.6
2018-10-05T01:34:30.011Z,20.6
2018-10-05T01:35:20.332Z,20.6
2018-10-05T01:36:10.383Z,20.6
2018-10-05T01:37:01.028Z,20.6
2018-10-05T01:37:50.513Z,20.6
2018-10-05T01:38:40.930Z,20.6
2018-10-05T01:39:31.258Z,20.6
2018-10-05T01:40:21.014Z,20.6
2018-10-05T01:41:11.083Z,20.6
2018-10-05T01:42:01.060Z,20.6
2018-10-05T01:42:51.520Z,20.6
2018-10-05T01:43:41.555Z,20.6
2018-10-05T01:44:31.643Z,20.6
2018-10-05T01:45:21.144Z,20.6
2018-10-05T01:46:10.888Z,20.6
2018-10-05T01:47:01.758Z,20.6
2018-10-05T01:47:50.146Z,20.6
2018-10-05T01:48:41.105Z,20.6
2018-10-05T01:49:31.668Z,20.6
2018-10-05T01:50:22.100Z,20.6
2018-10-05T01:51:11.563Z,20.6
2018-10-05T01:52:02.200Z,20.6
2018-10-05T01:52:51.671Z,20.6
2018-10-05T01:53:41.790Z,20.6
2018-10-05T01:54:32.068Z,20.6
2018-10-05T01:55:21.895Z,20.6
2018-10-05T01:56:10.737Z,20.6
2018-10-05T01:57:02.503Z,20.6
2018-10-05T01:57:52.551Z,20.6
2018-10-05T01:58:42.112Z,20.6
2018-10-05T01:59:33.190Z,20.6
2018-10-05T02:00:22.497Z,20.6
2018-10-05T02:01:12.268Z,20.6
2018-10-05T02:02:03.450Z,20.6
2018-10-05T02:02:52.417Z,20.6
2018-10-05T02:03:42.719Z,20.6
2018-10-05T02:04:31.995Z,20.6
2018-10-05T02:05:22.299Z,20.6
2018-10-05T02:06:27.584Z,20.6
2018-10-05T02:07:02.136Z,20.6
2018-10-05T02:07:52.741Z,20.6
2018-10-05T02:08:42.549Z,20.6
2018-10-05T02:09:33.664Z,20.6
2018-10-05T02:10:22.969Z,20.6
2018-10-05T02:11:12.724Z,20.6
2018-10-05T02:12:03.614Z,20.6
2018-10-05T02:12:52.584Z,20.6
2018-10-05T02:13:43.446Z,20.6
2018-10-05T02:14:32.931Z,20.6
2018-10-05T02:15:23.584Z,20.6
2018-10-05T02:16:13.356Z,20.6
2018-10-05T02:17:04.036Z,20.6
2018-10-05T02:18:08.421Z,20.6
2018-10-05T02:18:44.111Z,20.6
2018-10-05T02:19:34.204Z,20.6
2018-10-05T02:20:23.461Z,20.6
2018-10-05T02:21:13.213Z,20.6
2018-10-05T02:22:03.804Z,20.6
2018-10-05T02:22:54.396Z,20.6
2018-10-05T02:23:44.228Z,20.6
2018-10-05T02:24:34.278Z,20.6
2018-10-05T02:25:24.301Z,20.6
2018-10-05T02:26:14.878Z,20.6
2018-10-05T02:27:03.333Z,20.6
2018-10-05T02:27:54.491Z,20.6
2018-10-05T02:28:44.308Z,20.6
2018-10-05T02:29:34.370Z,20.6
2018-10-05T02:30:24.179Z,20.6
2018-10-05T02:31:14.505Z,20.6
2018-10-05T02:32:04.874Z,20.6
2018-10-05T02:32:55.502Z,20.6
2018-10-05T02:33:44.985Z,20.6
2018-10-05T02:34:34.431Z,20.6
2018-10-05T02:35:39.470Z,20.6
2018-10-05T02:36:14.870Z,20.6
2018-10-05T02:37:19.598Z,20.6
2018-10-05T02:37:55.552Z,20.6
2018-10-05T02:38:44.985Z,20.6
2018-10-05T02:39:35.311Z,20.6
2018-10-05T02:40:24.917Z,20.6
2018-10-05T02:41:29.916Z,20.6
2018-10-05T02:42:05.860Z,20.6
2018-10-05T02:42:55.540Z,20.6
2018-10-05T02:43:45.905Z,20.6
2018-10-05T02:44:35.819Z,20.6
2018-10-05T02:45:26.085Z,20.6
2018-10-05T02:46:15.630Z,20.6
2018-10-05T02:47:05.066Z,20.6
2018-10-05T02:47:56.254Z,20.6
2018-10-05T02:48:46.607Z,20.6
2018-10-05T02:49:36.417Z,20.6
2018-10-05T02:50:25.891Z,20.6
2018-10-05T02:51:16.551Z,20.6
2018-10-05T02:52:06.337Z,20.6
2018-10-05T02:52:56.067Z,20.6
2018-10-05T02:53:46.354Z,20.6
2018-10-05T02:54:36.247Z,20.6
2018-10-05T02:55:25.737Z,20.6
2018-10-05T02:56:16.899Z,20.6
2018-10-05T02:57:05.254Z,20.6
2018-10-05T02:57:57.064Z,20.6
2018-10-05T02:58:46.329Z,20.6
2018-10-05T02:59:37.172Z,20.6
2018-10-05T03:00:26.612Z,20.6
2018-10-05T03:01:17.447Z,20.6
2018-10-05T03:02:06.791Z,20.6
2018-10-05T03:02:56.633Z,20.6
2018-10-05T03:03:47.198Z,20.6
2018-10-05T03:04:36.918Z,20.6
2018-10-05T03:05:27.608Z,20.6
2018-10-05T03:06:17.083Z,20.6
2018-10-05T03:07:07.119Z,20.6
2018-10-05T03:07:57.625Z,20.6
2018-10-05T03:08:47.561Z,20.6
2018-10-05T03:09:37.630Z,20.6
2018-10-05T03:10:27.108Z,20.6
2018-10-05T03:11:16.865Z,20.6
2018-10-05T03:12:08.386Z,20.6
2018-10-05T03:12:58.173Z,20.6
2018-10-05T03:13:48.129Z,20.6
2018-10-05T03:14:37.667Z,20.6
2018-10-05T03:15:27.790Z,20.6
2018-10-05T03:16:18.077Z,20.5
2018-10-05T03:17:07.323Z,20.6
2018-10-05T03:17:57.664Z,20.6
2018-10-05T03:18:48.558Z,20.6
2018-10-05T03:19:37.049Z,20.6
2018-10-05T03:20:27.279Z,20.6
2018-10-05T03:21:18.163Z,20.6
2018-10-05T03:22:08.577Z,20.6
2018-10-05T03:22:58.032Z,20.6
2018-10-05T03:23:48.484Z,20.6
2018-10-05T03:24:38.437Z,20.6
2018-10-05T03:25:29.967Z,20.6
2018-10-05T03:26:19.274Z,20.6
2018-10-05T03:27:08.349Z,20.6
2018-10-05T03:27:59.244Z,20.5
2018-10-05T03:28:49.576Z,20.6
2018-10-05T03:29:39.053Z,20.6
2018-10-05T03:30:29.476Z,20.6
2018-10-05T03:31:18.908Z,20.5
2018-10-05T03:32:09.070Z,20.6
2018-10-05T03:32:59.498Z,20.6
2018-10-05T03:34:04.508Z,20.5
2018-10-05T03:34:39.451Z,20.5
2018-10-05T03:35:29.206Z,20.5
2018-10-05T03:36:19.795Z,20.5
2018-10-05T03:37:09.882Z,20.6
2018-10-05T03:37:59.396Z,20.5
2018-10-05T03:38:49.833Z,20.6
2018-10-05T03:39:40.081Z,20.5
2018-10-05T03:40:29.309Z,20.6
2018-10-05T03:41:19.641Z,20.5
2018-10-05T03:42:09.721Z,20.5
2018-10-05T03:43:00.045Z,20.5
2018-10-05T03:43:50.391Z,20.5
2018-10-05T03:44:40.118Z,20.5
2018-10-05T03:45:29.975Z,20.5
2018-10-05T03:46:20.063Z,20.5
2018-10-05T03:47:09.511Z,20.4
2018-10-05T03:48:00.370Z,20.5
2018-10-05T03:48:49.926Z,20.5
2018-10-05T03:49:39.411Z,20.5
2018-10-05T03:50:30.088Z,20.5
2018-10-05T03:51:20.681Z,20.5
2018-10-05T03:52:10.457Z,20.5
2018-10-05T03:53:00.810Z,20.5
2018-10-05T03:53:50.281Z,20.5
2018-10-05T03:54:40.891Z,20.5
2018-10-05T03:55:30.417Z,20.5
2018-10-05T03:56:20.767Z,20.5
2018-10-05T03:57:11.080Z,20.4
2018-10-05T03:58:01.230Z,20.5
2018-10-05T03:58:51.200Z,20.5
2018-10-05T03:59:41.336Z,20.5
2018-10-05T04:00:31.394Z,20.4
2018-10-05T04:01:21.145Z,20.5
2018-10-05T04:02:10.922Z,20.5
2018-10-05T04:03:00.984Z,20.5
2018-10-05T04:03:51.561Z,20.5
2018-10-05T04:04:40.911Z,20.4
2018-10-05T04:05:31.721Z,20.4
2018-10-05T04:06:22.279Z,20.4
2018-10-05T04:07:10.737Z,20.4
2018-10-05T04:08:00.728Z,20.5
2018-10-05T04:08:51.982Z,20.4
2018-10-05T04:09:41.794Z,20.4
2018-10-05T04:10:30.974Z,20.4
2018-10-05T04:11:23.741Z,20.4
2018-10-05T04:12:11.678Z,20.4
2018-10-05T04:13:01.733Z,20.4
2018-10-05T04:13:51.779Z,20.4
2018-10-05T04:14:42.446Z,20.4
2018-10-05T04:15:32.226Z,20.4
2018-10-05T04:16:22.274Z,20.4
2018-10-05T04:17:12.546Z,20.4
2018-10-05T04:18:02.616Z,20.4
2018-10-05T04:18:52.436Z,20.4
2018-10-05T04:19:57.396Z,20.4
2018-10-05T04:20:32.571Z,20.4
2018-10-05T04:21:22.936Z,20.4
2018-10-05T04:22:13.198Z,20.4
2018-10-05T04:23:03.081Z,20.4
2018-10-05T04:23:52.831Z,20.4
2018-10-05T04:24:42.644Z,20.4
2018-10-05T04:25:32.901Z,20.4
2018-10-05T04:26:26.306Z,20.4
2018-10-05T04:27:13.831Z,20.4
2018-10-05T04:28:02.964Z,20.4
2018-10-05T04:28:53.466Z,20.4
2018-10-05T04:29:42.952Z,20.4
2018-10-05T04:30:33.281Z,20.4
2018-10-05T04:31:37.869Z,20.4
2018-10-05T04:32:13.514Z,20.4
2018-10-05T04:33:03.274Z,20.4
2018-10-05T04:33:53.054Z,20.4
2018-10-05T04:34:42.545Z,20.4
2018-10-05T04:35:34.475Z,20.4
2018-10-05T04:36:23.213Z,20.4
2018-10-05T04:54:37.022Z,20.4
2018-10-05T04:55:27.374Z,20.4
2018-10-05T04:56:18.002Z,20.4
2018-10-05T04:57:08.102Z,20.4
2018-10-05T04:57:57.615Z,20.4
2018-10-05T04:58:47.551Z,20.4
2018-10-05T04:59:37.636Z,20.4
2018-10-05T05:00:28.224Z,20.4
2018-10-05T05:01:17.774Z,20.3
2018-10-05T05:02:07.564Z,20.4
2018-10-05T05:02:58.136Z,20.4
2018-10-05T05:03:47.989Z,20.4
2018-10-05T05:04:38.838Z,20.3
2018-10-05T05:05:26.980Z,20.4
2018-10-05T05:06:17.257Z,20.3
2018-10-05T05:07:07.926Z,20.3
2018-10-05T05:07:58.211Z,20.3
2018-10-05T05:08:47.788Z,20.3
2018-10-05T05:09:38.941Z,20.4
2018-10-05T05:10:28.246Z,20.4
2018-10-05T05:11:18.726Z,20.4
2018-10-05T05:12:09.045Z,20.3
2018-10-05T05:12:58.094Z,20.3
2018-10-05T05:13:47.311Z,20.4
2018-10-05T05:14:38.530Z,20.3
2018-10-05T05:15:28.288Z,20.3
2018-10-05T05:16:18.126Z,20.3
2018-10-05T05:17:08.126Z,20.3
2018-10-05T05:17:59.045Z,20.3
2018-10-05T05:18:48.623Z,20.3
2018-10-05T05:19:40.243Z,20.3
2018-10-05T05:20:28.655Z,20.3
2018-10-05T05:21:18.968Z,20.4
2018-10-05T05:22:08.503Z,20.3
2018-10-05T05:22:58.540Z,20.3
2018-10-05T05:23:49.188Z,20.3
2018-10-05T05:24:39.222Z,20.3
2018-10-05T05:25:29.215Z,20.3
2018-10-05T05:26:19.524Z,20.3
2018-10-05T05:27:10.184Z,20.3
2018-10-05T05:28:00.226Z,20.3
2018-10-05T05:28:49.844Z,20.3
2018-10-05T05:29:39.563Z,20.3
2018-10-05T05:30:30.368Z,20.3
2018-10-05T05:31:19.105Z,20.3
2018-10-05T05:32:09.716Z,20.3
2018-10-05T05:33:00.384Z,20.3
2018-10-05T05:33:50.478Z,20.3
2018-10-05T05:34:39.632Z,20.3
2018-10-05T05:35:30.748Z,20.3
2018-10-05T05:36:20.831Z,20.3
2018-10-05T05:37:10.050Z,20.3
2018-10-05T05:38:00.418Z,20.4
2018-10-05T05:38:50.732Z,20.3
2018-10-05T05:39:40.285Z,20.3
2018-10-05T05:40:31.974Z,20.3
2018-10-05T05:41:20.895Z,20.3
2018-10-05T05:42:10.968Z,20.3
2018-10-05T05:43:00.738Z,20.3
2018-10-05T05:43:51.429Z,20.3
2018-10-05T05:44:41.167Z,20.3
2018-10-05T05:45:31.248Z,20.3
2018-10-05T05:46:21.010Z,20.3
2018-10-05T05:47:11.653Z,20.3
2018-10-05T05:48:01.165Z,20.3
2018-10-05T05:48:52.010Z,20.3
2018-10-05T05:49:40.724Z,20.3
2018-10-05T05:50:31.323Z,20.3
2018-10-05T05:51:21.105Z,20.3
2018-10-05T05:52:12.107Z,20.3
2018-10-05T05:53:01.882Z,20.3
2018-10-05T05:53:52.842Z,20.3
2018-10-05T05:54:43.027Z,20.3
2018-10-05T05:55:31.741Z,20.3
2018-10-05T05:56:22.607Z,20.3
2018-10-05T05:57:11.832Z,20.3
2018-10-05T05:58:01.649Z,20.3
2018-10-05T05:58:52.484Z,20.3
2018-10-05T05:59:41.137Z,20.3
2018-10-05T06:00:32.672Z,20.3
2018-10-05T06:01:21.755Z,20.3
2018-10-05T06:02:12.460Z,20.3
2018-10-05T06:03:02.692Z,20.3
2018-10-05T06:03:53.145Z,20.3
2018-10-05T06:04:42.377Z,20.3
2018-10-05T06:05:32.442Z,20.3
2018-10-05T06:06:23.338Z,20.3
2018-10-05T06:07:12.622Z,20.3
2018-10-05T06:08:03.500Z,20.3
2018-10-05T06:08:52.451Z,20.3
2018-10-05T06:09:43.083Z,20.3
2018-10-05T06:10:32.794Z,20.3
2018-10-05T06:11:22.345Z,20.3
2018-10-05T06:12:12.939Z,20.3
2018-10-05T06:13:02.997Z,20.3
2018-10-05T06:13:52.832Z,20.3
2018-10-05T06:14:43.694Z,20.3
2018-10-05T06:15:34.110Z,20.3
2018-10-05T06:16:24.195Z,20.3
2018-10-05T06:17:13.014Z,20.3
2018-10-05T06:18:03.944Z,20.3
2018-10-05T06:18:53.425Z,20.3
2018-10-05T06:19:44.083Z,20.3
2018-10-05T06:20:33.351Z,20.3
2018-10-05T06:21:23.529Z,20.3
2018-10-05T06:22:14.904Z,20.3
2018-10-05T06:23:03.489Z,20.3
2018-10-05T06:23:53.778Z,20.3
2018-10-05T06:24:43.853Z,20.3
2018-10-05T06:25:34.578Z,20.3
2018-10-05T06:26:24.236Z,20.3
2018-10-05T06:27:15.271Z,20.3
2018-10-05T06:28:04.693Z,20.3
2018-10-05T06:28:53.303Z,20.3
2018-10-05T06:29:44.770Z,20.3
2018-10-05T06:30:34.219Z,20.3
2018-10-05T06:31:24.903Z,20.3
2018-10-05T06:32:14.178Z,20.3
2018-10-05T06:33:05.282Z,20.3
2018-10-05T06:33:54.587Z,20.3
2018-10-05T06:34:45.420Z,20.3
2018-10-05T06:35:34.367Z,20.3
2018-10-05T06:36:24.416Z,20.3
2018-10-05T06:37:15.910Z,20.3
2018-10-05T06:38:05.624Z,20.3
2018-10-05T06:38:55.253Z,20.3
2018-10-05T06:39:44.670Z,20.3
2018-10-05T06:40:35.051Z,20.3
2018-10-05T06:41:25.356Z,20.3
2018-10-05T06:42:17.928Z,20.3
2018-10-05T06:43:04.647Z,20.3
2018-10-05T06:43:54.954Z,20.3
2018-10-05T06:44:45.052Z,20.3
2018-10-05T06:45:35.404Z,20.3
2018-10-05T06:46:24.874Z,20.3
2018-10-05T06:47:15.492Z,20.3
2018-10-05T06:48:06.347Z,20.3
2018-10-05T06:48:55.047Z,20.3
2018-10-05T06:49:45.687Z,20.3
2018-10-05T06:50:36.062Z,20.3
2018-10-05T06:51:25.789Z,20.3
2018-10-05T06:52:15.322Z,20.3
2018-10-05T06:53:06.097Z,20.3
2018-10-05T06:53:55.707Z,20.3
2018-10-05T06:54:46.393Z,20.3
2018-10-05T06:55:35.826Z,20.3
2018-10-05T06:56:26.764Z,20.3
2018-10-05T06:57:16.796Z,20.3
2018-10-05T06:58:07.139Z,20.3
2018-10-05T06:58:56.139Z,20.3
2018-10-05T06:59:46.946Z,20.3
2018-10-05T07:00:36.181Z,20.3
2018-10-05T07:01:26.444Z,20.3
2018-10-05T07:02:17.536Z,20.3
2018-10-05T07:03:06.105Z,20.3
2018-10-05T07:03:56.703Z,20.3
2018-10-05T07:04:46.545Z,20.2
2018-10-05T07:05:36.855Z,20.2
2018-10-05T07:06:26.898Z,20.2
2018-10-05T07:07:17.289Z,20.3
2018-10-05T07:08:08.934Z,20.2
2018-10-05T07:08:57.093Z,20.2
2018-10-05T07:09:46.878Z,20.2
2018-10-05T07:10:36.388Z,20.2
2018-10-05T07:11:27.977Z,20.2
2018-10-05T07:12:16.741Z,20.2
2018-10-05T07:13:07.407Z,20.2
2018-10-05T07:13:57.740Z,20.2
2018-10-05T07:14:47.540Z,20.2
2018-10-05T07:15:38.011Z,20.2
2018-10-05T07:16:27.985Z,20.2
2018-10-05T07:17:18.218Z,20.2
2018-10-05T07:18:08.265Z,20.2
2018-10-05T07:18:57.863Z,20.2
2018-10-05T07:19:47.624Z,20.2
2018-10-05T07:20:37.672Z,20.2
2018-10-05T07:21:30.458Z,20.2
2018-10-05T07:22:18.434Z,20.1
2018-10-05T07:23:08.340Z,20.1
2018-10-05T07:23:58.724Z,20.1
2018-10-05T07:24:48.317Z,20.2
2018-10-05T07:25:37.997Z,20.1
2018-10-05T07:26:28.655Z,20.1
2018-10-05T07:27:18.198Z,20.1
2018-10-05T07:28:09.125Z,20.1
2018-10-05T07:28:58.294Z,20.2
2018-10-05T07:29:48.911Z,20.1
2018-10-05T07:30:39.277Z,20.1
2018-10-05T07:31:28.440Z,20.1
2018-10-05T07:32:18.578Z,20.1
2018-10-05T07:33:08.992Z,20.1
2018-10-05T07:33:58.661Z,20.1
2018-10-05T07:34:49.156Z,20.1
2018-10-05T07:35:38.499Z,20.1
2018-10-05T07:36:29.461Z,20.1
2018-10-05T07:37:20.499Z,20.1
2018-10-05T07:38:08.107Z,20.1
2018-10-05T07:38:59.019Z,20.1
2018-10-05T07:39:49.391Z,20.1
2018-10-05T07:40:39.999Z,20.1
2018-10-05T07:41:29.736Z,20.1
2018-10-05T07:42:19.239Z,20.1
2018-10-05T07:43:11.516Z,20.1
2018-10-05T07:44:00.165Z,20.1
2018-10-05T07:44:50.008Z,20.1
2018-10-05T07:45:39.178Z,20.1
2018-10-05T07:46:29.845Z,20.1
2018-10-05T07:47:19.910Z,20.1
2018-10-05T07:48:10.583Z,20.1
2018-10-05T07:49:00.822Z,20.1
2018-10-05T07:49:50.652Z,20.1
2018-10-05T07:50:40.183Z,20.1
2018-10-05T07:51:30.491Z,20.1
2018-10-05T07:52:19.437Z,20.1
2018-10-05T07:53:09.550Z,20.1
2018-10-05T07:54:00.675Z,20.1
2018-10-05T07:54:50.217Z,20.1
2018-10-05T07:55:40.320Z,20.1
2018-10-05T07:56:29.845Z,20.1
2018-10-05T07:57:21.170Z,20.1
2018-10-05T07:58:10.455Z,20.1
2018-10-05T07:59:01.047Z,20.1
2018-10-05T07:59:50.853Z,20.1
2018-10-05T08:00:41.190Z,20.1
2018-10-05T08:01:30.694Z,20.1
2018-10-05T08:02:21.299Z,20.1
2018-10-05T08:03:10.355Z,20.1
2018-10-05T08:04:01.479Z,20
2018-10-05T08:04:51.735Z,20.1
2018-10-05T08:05:40.601Z,20.1
2018-10-05T08:06:31.139Z,20.1
2018-10-05T08:07:21.988Z,20.1
2018-10-05T08:08:11.715Z,20.1
2018-10-05T08:09:01.824Z,20
2018-10-05T08:09:51.282Z,20
2018-10-05T08:10:41.419Z,20.1
2018-10-05T08:11:31.824Z,20.1
2018-10-05T08:12:21.044Z,20
2018-10-05T08:13:11.898Z,20.1
2018-10-05T08:14:02.140Z,20.1
2018-10-05T08:14:52.326Z,20.1
2018-10-05T08:15:41.537Z,20.1
2018-10-05T08:16:31.406Z,20.1
2018-10-05T08:17:22.460Z,20.1
2018-10-05T08:18:11.431Z,20.1
2018-10-05T08:19:01.292Z,20.1
2018-10-05T08:19:52.381Z,20.1
2018-10-05T08:20:42.688Z,20.1
2018-10-05T08:21:33.146Z,20
2018-10-05T08:22:22.096Z,20
2018-10-05T08:23:12.598Z,20.1
2018-10-05T08:24:02.616Z,20.1
2018-10-05T08:24:52.990Z,20
2018-10-05T08:25:42.751Z,20.1
2018-10-05T08:26:31.606Z,20
2018-10-05T08:27:22.530Z,20.1
2018-10-05T08:28:12.256Z,20.1
2018-10-05T08:29:02.235Z,20.1
2018-10-05T08:29:53.356Z,20
2018-10-05T08:30:42.945Z,20
2018-10-05T08:31:32.736Z,20.1
2018-10-05T08:32:22.529Z,20
2018-10-05T08:33:13.878Z,20
2018-10-05T08:34:04.473Z,20.1
2018-10-05T08:34:53.495Z,20
2018-10-05T08:35:43.505Z,20
2018-10-05T08:36:33.398Z,20.1
2018-10-05T08:37:22.653Z,20.1
2018-10-05T08:38:12.867Z,20
2018-10-05T08:39:03.265Z,20.1
2018-10-05T08:39:54.772Z,20.1
2018-10-05T08:40:44.444Z,20.1
2018-10-05T08:41:33.190Z,20.1
2018-10-05T08:42:24.270Z,20.1
2018-10-05T08:43:13.578Z,20
2018-10-05T08:44:03.608Z,20
2018-10-05T08:44:54.213Z,20.1
2018-10-05T08:45:44.585Z,20.1
2018-10-05T08:46:32.557Z,20
2018-10-05T08:47:24.394Z,20.1
2018-10-05T08:48:13.682Z,20.1
2018-10-05T08:49:02.874Z,20.1
2018-10-05T08:49:54.100Z,20.1
2018-10-05T08:50:44.092Z,20
2018-10-05T08:51:35.302Z,20.1
2018-10-05T08:52:25.325Z,20
2018-10-05T09:08:43.595Z,20.1
2018-10-05T09:09:33.109Z,20.1
2018-10-05T09:10:23.138Z,20.1
2018-10-05T09:11:13.072Z,20.1
2018-10-05T09:12:03.300Z,20.1
2018-10-05T09:12:53.610Z,20.1
2018-10-05T09:13:43.033Z,20.1
2018-10-05T09:14:32.928Z,20.1
2018-10-05T09:15:22.695Z,20.1
2018-10-05T09:16:13.285Z,20.1
2018-10-05T09:17:03.391Z,20.1
2018-10-05T09:17:54.415Z,20.1
2018-10-05T09:18:43.200Z,20.1
2018-10-05T09:19:32.959Z,20.1
2018-10-05T09:20:23.619Z,20.1
2018-10-05T09:21:13.955Z,20.1
2018-10-05T09:22:03.767Z,20.1
2018-10-05T09:22:54.604Z,20.1
2018-10-05T09:23:43.820Z,20.1
2018-10-05T09:24:33.975Z,20.1
2018-10-05T09:25:22.762Z,20.1
2018-10-05T09:26:14.320Z,20.1
2018-10-05T09:27:02.970Z,20.1
2018-10-05T09:27:54.730Z,20.1
2018-10-05T09:28:44.204Z,20.1
2018-10-05T09:29:34.549Z,20.1
2018-10-05T09:30:24.344Z,20.1
2018-10-05T09:31:13.837Z,20.1
2018-10-05T09:32:03.438Z,20.1
2018-10-05T09:32:53.405Z,20.1
2018-10-05T09:33:44.479Z,20.1
2018-10-05T09:34:35.163Z,20.1
2018-10-05T09:35:23.865Z,20.1
2018-10-05T09:36:15.288Z,20.1
2018-10-05T09:37:04.869Z,20.1
2018-10-05T09:37:56.597Z,20.1
2018-10-05T09:38:45.206Z,20.1
2018-10-05T09:39:35.034Z,20.1
2018-10-05T09:40:25.051Z,20.1
2018-10-05T09:41:14.814Z,20.1
2018-10-05T09:42:05.492Z,20.1
2018-10-05T09:42:55.781Z,20.1
2018-10-05T09:43:46.548Z,20.1
2018-10-05T09:44:35.126Z,20.1
2018-10-05T09:45:26.317Z,20.1
2018-10-05T09:46:16.336Z,20.1
2018-10-05T09:47:06.391Z,20.1
2018-10-05T09:47:55.339Z,20.1
2018-10-05T09:48:45.203Z,20.1
2018-10-05T09:49:35.278Z,20.1
2018-10-05T09:50:26.073Z,20.1
2018-10-05T09:51:16.591Z,20.1
2018-10-05T09:52:06.208Z,20.1
2018-10-05T09:52:56.835Z,20.1
2018-10-05T09:53:46.096Z,20.1
2018-10-05T09:54:36.092Z,20.1
2018-10-05T09:55:25.338Z,20.1
2018-10-05T09:56:15.258Z,20.1
2018-10-05T09:57:05.272Z,20.1
2018-10-05T09:57:57.579Z,20.1
2018-10-05T09:58:47.055Z,20.1
2018-10-05T09:59:36.767Z,20.1
2018-10-05T10:00:26.088Z,20.1
2018-10-05T10:01:16.668Z,20.1
2018-10-05T10:02:06.403Z,20.1
2018-10-05T10:02:57.600Z,20.1
2018-10-05T10:03:47.107Z,20.1
2018-10-05T10:04:36.302Z,20.1
2018-10-05T10:05:27.020Z,20.1
2018-10-05T10:06:16.756Z,20.1
2018-10-05T10:07:06.510Z,20.1
2018-10-05T10:07:58.664Z,20.1
2018-10-05T10:08:47.492Z,20.1
2018-10-05T10:09:37.555Z,20.1
2018-10-05T10:10:27.040Z,20.1
2018-10-05T10:11:16.849Z,20.1
2018-10-05T10:12:07.094Z,20.1
2018-10-05T10:12:56.937Z,20.1
2018-10-05T10:13:48.447Z,20.1
2018-10-05T10:14:38.292Z,20.2
2018-10-05T10:15:28.506Z,20.1
2018-10-05T10:16:17.391Z,20.1
2018-10-05T10:17:07.520Z,20.1
2018-10-05T10:17:58.076Z,20.1
2018-10-05T10:18:48.444Z,20.1
2018-10-05T10:19:38.161Z,20.1
2018-10-05T10:20:28.511Z,20.1
2018-10-05T10:21:18.160Z,20.2
2018-10-05T10:22:07.815Z,20.2
2018-10-05T10:22:58.753Z,20.2
2018-10-05T10:23:48.531Z,20.2
2018-10-05T10:24:39.076Z,20.2
2018-10-05T10:25:28.077Z,20.2
2018-10-05T10:26:19.527Z,20.1
2018-10-05T10:27:09.292Z,20.2
2018-10-05T10:27:59.621Z,20.2
2018-10-05T10:28:51.057Z,20.2
2018-10-05T10:29:40.461Z,20.2
2018-10-05T10:30:29.087Z,20.2
2018-10-05T10:31:19.699Z,20.2
2018-10-05T10:32:09.377Z,20.2
2018-10-05T10:32:58.611Z,20.2
2018-10-05T10:33:51.089Z,20.1
2018-10-05T10:34:40.630Z,20.2
2018-10-05T10:35:30.224Z,20.1
2018-10-05T10:36:20.263Z,20.1
2018-10-05T10:37:10.349Z,20.2
2018-10-05T10:37:59.252Z,20.2
2018-10-05T10:38:49.658Z,20.1
2018-10-05T10:39:40.485Z,20.2
2018-10-05T10:40:30.029Z,20.1
2018-10-05T10:41:20.343Z,20.1
2018-10-05T10:42:10.702Z,20.1
2018-10-05T10:42:58.848Z,20.1
2018-10-05T10:43:50.530Z,20.2
2018-10-05T10:44:39.848Z,20.2
2018-10-05T10:45:30.168Z,20.1
2018-10-05T10:46:19.946Z,20.2
2018-10-05T10:47:09.206Z,20.2
2018-10-05T10:48:00.210Z,20.2
2018-10-05T10:48:48.983Z,20.2
2018-10-05T10:49:39.896Z,20.2
2018-10-05T10:50:30.278Z,20.2
2018-10-05T10:51:19.552Z,20.2
2018-10-05T10:52:10.241Z,20.2
2018-10-05T10:53:00.259Z,20.2
2018-10-05T10:53:50.313Z,20.2
2018-10-05T10:54:40.775Z,20.2
2018-10-05T10:55:29.498Z,20.2
2018-10-05T10:56:22.858Z,20.2
2018-10-05T10:57:10.800Z,20.2
2018-10-05T10:58:01.612Z,20.2
2018-10-05T10:58:51.431Z,20.2
2018-10-05T10:59:41.138Z,20.2
2018-10-05T11:00:31.629Z,20.2
2018-10-05T11:01:22.068Z,20.2
2018-10-05T11:02:12.454Z,20.2
2018-10-05T11:03:01.882Z,20.2
2018-10-05T11:03:52.231Z,20.2
2018-10-05T11:04:43.979Z,20.2
2018-10-05T11:05:31.862Z,20.3
2018-10-05T11:06:21.077Z,20.2
2018-10-05T11:07:15.329Z,20.2
2018-10-05T11:08:01.901Z,20.2
2018-10-05T11:08:52.546Z,20.2
2018-10-05T11:09:42.536Z,20.2
2018-10-05T11:10:32.089Z,20.2
2018-10-05T11:11:23.943Z,20.2
2018-10-05T11:12:13.000Z,20.2
2018-10-05T11:13:01.819Z,20.2
2018-10-05T11:13:52.472Z,20.2
2018-10-05T11:14:42.266Z,20.2
2018-10-05T11:15:33.139Z,20.2
2018-10-05T11:16:23.704Z,20.3
2018-10-05T11:17:14.095Z,20.2
2018-10-05T11:18:02.767Z,20.2
2018-10-05T11:18:52.833Z,20.2
2018-10-05T11:19:43.474Z,20.3
2018-10-05T11:20:32.971Z,20.2
2018-10-05T11:21:23.248Z,20.2
2018-10-05T11:22:13.077Z,20.2
2018-10-05T11:23:03.495Z,20.2
2018-10-05T11:23:53.228Z,20.2
2018-10-05T11:24:43.581Z,20.2
2018-10-05T11:25:33.583Z,20.2
2018-10-05T11:26:24.234Z,20.2
2018-10-05T11:27:13.406Z,20.2
2018-10-05T11:28:03.786Z,20.2
2018-10-05T11:28:53.268Z,20.2
2018-10-05T11:29:44.883Z,20.2
2018-10-05T11:30:33.111Z,20.2
2018-10-05T11:31:23.768Z,20.3
2018-10-05T11:32:14.368Z,20.2
2018-10-05T11:33:04.197Z,20.2
2018-10-05T11:33:53.669Z,20.2
2018-10-05T11:34:43.705Z,20.3
2018-10-05T11:35:33.773Z,20.3
2018-10-05T11:36:24.453Z,20.3
2018-10-05T11:37:14.547Z,20.2
2018-10-05T11:38:04.305Z,20.2
2018-10-05T11:38:54.915Z,20.2
2018-10-05T11:39:44.545Z,20.2
2018-10-05T11:40:34.537Z,20.2
2018-10-05T11:41:23.718Z,20.2
2018-10-05T11:42:14.622Z,20.2
2018-10-05T11:43:04.994Z,20.3
2018-10-05T11:43:54.502Z,20.2
2018-10-05T11:44:44.812Z,20.2
2018-10-05T11:45:34.898Z,20.2
2018-10-05T11:46:26.125Z,20.3
2018-10-05T11:47:14.160Z,20.3
2018-10-05T11:48:05.043Z,20.3
2018-10-05T11:48:55.102Z,20.3
2018-10-05T11:49:45.080Z,20.2
2018-10-05T11:50:34.252Z,20.3
2018-10-05T11:51:25.524Z,20.3
2018-10-05T11:52:15.802Z,20.3
2018-10-05T11:53:05.504Z,20.2
2018-10-05T11:53:55.644Z,20.3
2018-10-05T11:54:45.161Z,20.3
2018-10-05T11:55:35.483Z,20.3
2018-10-05T11:56:26.049Z,20.2
2018-10-05T11:57:15.322Z,20.3